sensor_id;sensor_type;location;lat;lon;timestamp;P1;durP1;ratioP1;P2;durP2;ratioP2
50417;SDS011;36346;48.280;14.292;2022-07-29T00:01:01;5.38;;;5.38;;
50417;SDS011;36346;48.280;14.292;2022-07-29T00:03:29;5.56;;;5.56;;
50417;SDS011;36346;48.280;14.292;2022-07-29T00:05:57;5.85;;;5.85;;
50417;SDS011;36346;48.280;14.292;2022-07-29T00:08:27;5.75;;;5.75;;
50417;SDS011;36346;48.280;14.292;2022-07-29T00:10:55;6.05;;;6.05;;
50417;SDS011;36346;48.280;14.292;2022-07-29T00:13:23;6.07;;;6.07;;
50417;SDS011;36346;48.280;14.292;2022-07-29T00:15:59;5.68;;;5.68;;
50417;SDS011;36346;48.280;14.292;2022-07-29T00:18:31;6.10;;;6.10;;
50417;SDS011;36346;48.280;14.292;2022-07-29T00:20:59;6.06;;;6.06;;
50417;SDS011;36346;48.280;14.292;2022-07-29T00:23:27;6.20;;;6.20;;
50417;SDS011;36346;48.280;14.292;2022-07-29T00:25:58;6.32;;;6.32;;
50417;SDS011;36346;48.280;14.292;2022-07-29T00:28:26;6.21;;;6.21;;
50417;SDS011;36346;48.280;14.292;2022-07-29T00:30:54;6.35;;;6.35;;
50417;SDS011;36346;48.280;14.292;2022-07-29T00:33:22;6.21;;;6.21;;
50417;SDS011;36346;48.280;14.292;2022-07-29T00:35:50;6.60;;;6.60;;
50417;SDS011;36346;48.280;14.292;2022-07-29T00:38:19;6.12;;;6.12;;
50417;SDS011;36346;48.280;14.292;2022-07-29T00:40:47;6.42;;;6.42;;
50417;SDS011;36346;48.280;14.292;2022-07-29T00:43:16;6.38;;;6.38;;
50417;SDS011;36346;48.280;14.292;2022-07-29T00:45:44;6.48;;;6.48;;
50417;SDS011;36346;48.280;14.292;2022-07-29T00:48:13;6.33;;;6.33;;
50417;SDS011;36346;48.280;14.292;2022-07-29T00:50:41;6.30;;;6.30;;
50417;SDS011;36346;48.280;14.292;2022-07-29T00:53:10;6.38;;;6.38;;
50417;SDS011;36346;48.280;14.292;2022-07-29T00:55:39;6.20;;;6.20;;
50417;SDS011;36346;48.280;14.292;2022-07-29T00:58:07;6.07;;;6.07;;
50417;SDS011;36346;48.280;14.292;2022-07-29T01:00:36;6.52;;;6.52;;
50417;SDS011;36346;48.280;14.292;2022-07-29T01:03:04;6.58;;;6.58;;
50417;SDS011;36346;48.280;14.292;2022-07-29T01:05:32;6.98;;;6.98;;
50417;SDS011;36346;48.280;14.292;2022-07-29T01:08:18;6.67;;;6.67;;
50417;SDS011;36346;48.280;14.292;2022-07-29T01:10:47;6.80;;;6.80;;
50417;SDS011;36346;48.280;14.292;2022-07-29T01:13:16;6.76;;;6.76;;
50417;SDS011;36346;48.280;14.292;2022-07-29T01:15:47;6.73;;;6.73;;
50417;SDS011;36346;48.280;14.292;2022-07-29T01:18:24;6.79;;;6.79;;
50417;SDS011;36346;48.280;14.292;2022-07-29T01:26:43;6.54;;;6.54;;
50417;SDS011;36346;48.280;14.292;2022-07-29T01:29:45;6.73;;;6.73;;
50417;SDS011;36346;48.280;14.292;2022-07-29T01:32:22;7.10;;;7.10;;
50417;SDS011;36346;48.280;14.292;2022-07-29T01:35:21;7.03;;;7.03;;
50417;SDS011;36346;48.280;14.292;2022-07-29T01:38:11;7.06;;;7.06;;
50417;SDS011;36346;48.280;14.292;2022-07-29T01:40:50;7.14;;;7.14;;
50417;SDS011;36346;48.280;14.292;2022-07-29T01:43:27;6.68;;;6.68;;
50417;SDS011;36346;48.280;14.292;2022-07-29T01:46:01;6.97;;;6.97;;
50417;SDS011;36346;48.280;14.292;2022-07-29T01:53:46;7.13;;;7.13;;
50417;SDS011;36346;48.280;14.292;2022-07-29T01:56:19;7.35;;;7.35;;
50417;SDS011;36346;48.280;14.292;2022-07-29T01:58:49;6.70;;;6.70;;
50417;SDS011;36346;48.280;14.292;2022-07-29T02:01:20;6.90;;;6.90;;
50417;SDS011;36346;48.280;14.292;2022-07-29T02:03:51;7.27;;;7.27;;
50417;SDS011;36346;48.280;14.292;2022-07-29T02:06:22;7.55;;;7.55;;
50417;SDS011;36346;48.280;14.292;2022-07-29T02:08:52;7.48;;;7.48;;
50417;SDS011;36346;48.280;14.292;2022-07-29T02:11:21;7.02;;;7.02;;
50417;SDS011;36346;48.280;14.292;2022-07-29T02:13:49;6.85;;;6.85;;
50417;SDS011;36346;48.280;14.292;2022-07-29T02:16:21;7.07;;;7.07;;
50417;SDS011;36346;48.280;14.292;2022-07-29T02:18:52;7.13;;;7.13;;
50417;SDS011;36346;48.280;14.292;2022-07-29T02:21:23;6.77;;;6.77;;
50417;SDS011;36346;48.280;14.292;2022-07-29T02:23:53;7.10;;;7.10;;
50417;SDS011;36346;48.280;14.292;2022-07-29T02:26:24;7.10;;;7.10;;
50417;SDS011;36346;48.280;14.292;2022-07-29T02:28:54;6.83;;;6.83;;
50417;SDS011;36346;48.280;14.292;2022-07-29T02:31:25;7.23;;;7.23;;
50417;SDS011;36346;48.280;14.292;2022-07-29T02:33:56;6.83;;;6.83;;
50417;SDS011;36346;48.280;14.292;2022-07-29T02:36:24;7.25;;;7.25;;
50417;SDS011;36346;48.280;14.292;2022-07-29T02:38:54;7.15;;;7.15;;
50417;SDS011;36346;48.280;14.292;2022-07-29T02:44:02;7.11;;;7.11;;
50417;SDS011;36346;48.280;14.292;2022-07-29T02:46:34;7.47;;;7.47;;
50417;SDS011;36346;48.280;14.292;2022-07-29T02:49:07;7.21;;;7.21;;
50417;SDS011;36346;48.280;14.292;2022-07-29T02:51:49;7.13;;;7.13;;
50417;SDS011;36346;48.280;14.292;2022-07-29T02:54:33;7.71;;;7.71;;
50417;SDS011;36346;48.280;14.292;2022-07-29T03:00:01;7.87;;;7.87;;
50417;SDS011;36346;48.280;14.292;2022-07-29T03:02:37;8.05;;;8.05;;
50417;SDS011;36346;48.280;14.292;2022-07-29T03:05:09;7.81;;;7.81;;
50417;SDS011;36346;48.280;14.292;2022-07-29T03:07:44;7.73;;;7.73;;
50417;SDS011;36346;48.280;14.292;2022-07-29T03:10:15;7.59;;;7.59;;
50417;SDS011;36346;48.280;14.292;2022-07-29T03:12:44;8.00;;;8.00;;
50417;SDS011;36346;48.280;14.292;2022-07-29T03:15:14;8.06;;;8.06;;
50417;SDS011;36346;48.280;14.292;2022-07-29T03:17:42;7.81;;;7.81;;
50417;SDS011;36346;48.280;14.292;2022-07-29T03:20:11;7.85;;;7.85;;
50417;SDS011;36346;48.280;14.292;2022-07-29T03:22:40;7.99;;;7.99;;
50417;SDS011;36346;48.280;14.292;2022-07-29T03:25:16;8.09;;;8.09;;
50417;SDS011;36346;48.280;14.292;2022-07-29T03:27:46;7.84;;;7.84;;
50417;SDS011;36346;48.280;14.292;2022-07-29T03:30:15;8.12;;;8.12;;
50417;SDS011;36346;48.280;14.292;2022-07-29T03:32:52;8.00;;;8.00;;
50417;SDS011;36346;48.280;14.292;2022-07-29T03:35:20;8.43;;;8.43;;
50417;SDS011;36346;48.280;14.292;2022-07-29T03:37:48;8.28;;;8.28;;
50417;SDS011;36346;48.280;14.292;2022-07-29T03:40:21;8.01;;;8.01;;
50417;SDS011;36346;48.280;14.292;2022-07-29T03:42:54;8.31;;;8.31;;
50417;SDS011;36346;48.280;14.292;2022-07-29T03:45:23;8.13;;;8.13;;
50417;SDS011;36346;48.280;14.292;2022-07-29T03:47:54;8.14;;;8.14;;
50417;SDS011;36346;48.280;14.292;2022-07-29T03:50:28;8.70;;;8.70;;
50417;SDS011;36346;48.280;14.292;2022-07-29T03:52:58;8.25;;;8.25;;
50417;SDS011;36346;48.280;14.292;2022-07-29T03:55:26;9.11;;;9.11;;
50417;SDS011;36346;48.280;14.292;2022-07-29T03:57:57;8.87;;;8.87;;
50417;SDS011;36346;48.280;14.292;2022-07-29T04:00:26;9.08;;;9.08;;
50417;SDS011;36346;48.280;14.292;2022-07-29T04:02:55;9.11;;;9.11;;
50417;SDS011;36346;48.280;14.292;2022-07-29T04:05:24;9.26;;;9.26;;
50417;SDS011;36346;48.280;14.292;2022-07-29T04:07:52;9.44;;;9.44;;
50417;SDS011;36346;48.280;14.292;2022-07-29T04:10:22;9.63;;;9.63;;
50417;SDS011;36346;48.280;14.292;2022-07-29T04:12:58;9.28;;;9.28;;
50417;SDS011;36346;48.280;14.292;2022-07-29T04:15:27;9.13;;;9.13;;
50417;SDS011;36346;48.280;14.292;2022-07-29T04:17:58;8.70;;;8.70;;
50417;SDS011;36346;48.280;14.292;2022-07-29T04:20:27;8.79;;;8.79;;
50417;SDS011;36346;48.280;14.292;2022-07-29T04:22:55;8.92;;;8.92;;
50417;SDS011;36346;48.280;14.292;2022-07-29T04:25:23;8.46;;;8.46;;
50417;SDS011;36346;48.280;14.292;2022-07-29T04:27:51;8.41;;;8.41;;
50417;SDS011;36346;48.280;14.292;2022-07-29T04:30:28;8.52;;;8.52;;
50417;SDS011;36346;48.280;14.292;2022-07-29T04:32:57;8.50;;;8.50;;
50417;SDS011;36346;48.280;14.292;2022-07-29T04:35:28;7.89;;;7.89;;
50417;SDS011;36346;48.280;14.292;2022-07-29T04:38:05;8.16;;;8.16;;
50417;SDS011;36346;48.280;14.292;2022-07-29T04:40:34;8.08;;;8.08;;
50417;SDS011;36346;48.280;14.292;2022-07-29T04:43:05;7.59;;;7.59;;
50417;SDS011;36346;48.280;14.292;2022-07-29T04:45:33;7.92;;;7.92;;
50417;SDS011;36346;48.280;14.292;2022-07-29T04:48:01;7.82;;;7.82;;
50417;SDS011;36346;48.280;14.292;2022-07-29T04:50:29;7.79;;;7.79;;
50417;SDS011;36346;48.280;14.292;2022-07-29T04:52:57;7.81;;;7.81;;
50417;SDS011;36346;48.280;14.292;2022-07-29T04:55:25;7.92;;;7.92;;
50417;SDS011;36346;48.280;14.292;2022-07-29T04:57:53;7.95;;;7.95;;
50417;SDS011;36346;48.280;14.292;2022-07-29T05:00:21;8.40;;;8.40;;
50417;SDS011;36346;48.280;14.292;2022-07-29T05:02:58;8.10;;;8.10;;
50417;SDS011;36346;48.280;14.292;2022-07-29T05:05:26;8.27;;;8.27;;
50417;SDS011;36346;48.280;14.292;2022-07-29T05:07:54;8.91;;;8.91;;
50417;SDS011;36346;48.280;14.292;2022-07-29T05:10:23;8.43;;;8.43;;
50417;SDS011;36346;48.280;14.292;2022-07-29T05:12:51;7.92;;;7.92;;
50417;SDS011;36346;48.280;14.292;2022-07-29T05:15:19;7.74;;;7.74;;
50417;SDS011;36346;48.280;14.292;2022-07-29T05:17:47;8.39;;;8.39;;
50417;SDS011;36346;48.280;14.292;2022-07-29T05:20:15;8.07;;;8.07;;
50417;SDS011;36346;48.280;14.292;2022-07-29T05:22:43;8.01;;;8.01;;
50417;SDS011;36346;48.280;14.292;2022-07-29T05:25:11;8.36;;;8.36;;
50417;SDS011;36346;48.280;14.292;2022-07-29T05:27:39;7.94;;;7.94;;
50417;SDS011;36346;48.280;14.292;2022-07-29T05:30:07;7.87;;;7.87;;
50417;SDS011;36346;48.280;14.292;2022-07-29T05:32:35;7.94;;;7.94;;
50417;SDS011;36346;48.280;14.292;2022-07-29T05:35:03;8.01;;;8.01;;
50417;SDS011;36346;48.280;14.292;2022-07-29T05:37:31;8.04;;;8.04;;
50417;SDS011;36346;48.280;14.292;2022-07-29T05:39:59;8.19;;;8.19;;
50417;SDS011;36346;48.280;14.292;2022-07-29T05:42:28;8.91;;;8.91;;
50417;SDS011;36346;48.280;14.292;2022-07-29T05:44:56;8.96;;;8.96;;
50417;SDS011;36346;48.280;14.292;2022-07-29T05:47:24;8.78;;;8.78;;
50417;SDS011;36346;48.280;14.292;2022-07-29T05:49:52;8.63;;;8.63;;
50417;SDS011;36346;48.280;14.292;2022-07-29T05:52:21;8.18;;;8.18;;
50417;SDS011;36346;48.280;14.292;2022-07-29T05:54:49;8.54;;;8.54;;
50417;SDS011;36346;48.280;14.292;2022-07-29T05:57:18;8.59;;;8.59;;
50417;SDS011;36346;48.280;14.292;2022-07-29T05:59:47;8.75;;;8.75;;
50417;SDS011;36346;48.280;14.292;2022-07-29T06:02:17;8.35;;;8.35;;
50417;SDS011;36346;48.280;14.292;2022-07-29T06:04:45;8.64;;;8.64;;
50417;SDS011;36346;48.280;14.292;2022-07-29T06:07:13;8.44;;;8.44;;
50417;SDS011;36346;48.280;14.292;2022-07-29T06:09:41;8.63;;;8.63;;
50417;SDS011;36346;48.280;14.292;2022-07-29T06:12:10;8.49;;;8.49;;
50417;SDS011;36346;48.280;14.292;2022-07-29T06:14:38;8.27;;;8.27;;
50417;SDS011;36346;48.280;14.292;2022-07-29T06:17:06;7.67;;;7.67;;
50417;SDS011;36346;48.280;14.292;2022-07-29T06:19:34;8.13;;;8.13;;
50417;SDS011;36346;48.280;14.292;2022-07-29T06:22:03;7.76;;;7.76;;
50417;SDS011;36346;48.280;14.292;2022-07-29T06:24:32;7.79;;;7.79;;
50417;SDS011;36346;48.280;14.292;2022-07-29T06:27:01;7.94;;;7.94;;
50417;SDS011;36346;48.280;14.292;2022-07-29T06:29:29;8.35;;;8.35;;
50417;SDS011;36346;48.280;14.292;2022-07-29T06:31:58;7.92;;;7.92;;
50417;SDS011;36346;48.280;14.292;2022-07-29T06:34:26;8.28;;;8.28;;
50417;SDS011;36346;48.280;14.292;2022-07-29T06:36:54;8.00;;;8.00;;
50417;SDS011;36346;48.280;14.292;2022-07-29T06:39:22;7.98;;;7.98;;
50417;SDS011;36346;48.280;14.292;2022-07-29T06:41:50;8.46;;;8.46;;
50417;SDS011;36346;48.280;14.292;2022-07-29T06:44:22;8.00;;;8.00;;
50417;SDS011;36346;48.280;14.292;2022-07-29T06:46:50;8.44;;;8.44;;
50417;SDS011;36346;48.280;14.292;2022-07-29T06:49:19;8.13;;;8.13;;
50417;SDS011;36346;48.280;14.292;2022-07-29T06:51:47;8.45;;;8.45;;
50417;SDS011;36346;48.280;14.292;2022-07-29T06:54:15;8.51;;;8.51;;
50417;SDS011;36346;48.280;14.292;2022-07-29T06:56:44;8.12;;;8.12;;
50417;SDS011;36346;48.280;14.292;2022-07-29T06:59:12;8.63;;;8.63;;
50417;SDS011;36346;48.280;14.292;2022-07-29T07:01:41;8.11;;;8.11;;
50417;SDS011;36346;48.280;14.292;2022-07-29T07:04:10;8.48;;;8.48;;
50417;SDS011;36346;48.280;14.292;2022-07-29T07:06:39;8.98;;;8.98;;
50417;SDS011;36346;48.280;14.292;2022-07-29T07:09:07;8.42;;;8.42;;
50417;SDS011;36346;48.280;14.292;2022-07-29T07:11:35;9.03;;;9.03;;
50417;SDS011;36346;48.280;14.292;2022-07-29T07:14:03;8.57;;;8.57;;
50417;SDS011;36346;48.280;14.292;2022-07-29T07:16:31;8.84;;;8.84;;
50417;SDS011;36346;48.280;14.292;2022-07-29T07:19:00;8.93;;;8.93;;
50417;SDS011;36346;48.280;14.292;2022-07-29T07:21:28;8.82;;;8.82;;
50417;SDS011;36346;48.280;14.292;2022-07-29T07:23:58;9.03;;;9.03;;
50417;SDS011;36346;48.280;14.292;2022-07-29T07:26:26;10.11;;;10.11;;
50417;SDS011;36346;48.280;14.292;2022-07-29T07:28:55;10.31;;;10.31;;
50417;SDS011;36346;48.280;14.292;2022-07-29T07:31:23;9.71;;;9.71;;
50417;SDS011;36346;48.280;14.292;2022-07-29T07:33:51;9.51;;;9.51;;
50417;SDS011;36346;48.280;14.292;2022-07-29T07:36:21;9.49;;;9.49;;
50417;SDS011;36346;48.280;14.292;2022-07-29T07:38:49;9.87;;;9.87;;
50417;SDS011;36346;48.280;14.292;2022-07-29T07:41:17;8.73;;;8.73;;
50417;SDS011;36346;48.280;14.292;2022-07-29T07:43:45;8.58;;;8.58;;
50417;SDS011;36346;48.280;14.292;2022-07-29T07:46:14;9.44;;;9.44;;
50417;SDS011;36346;48.280;14.292;2022-07-29T07:48:42;9.23;;;9.23;;
50417;SDS011;36346;48.280;14.292;2022-07-29T07:51:10;8.25;;;8.25;;
50417;SDS011;36346;48.280;14.292;2022-07-29T07:53:39;7.81;;;7.81;;
50417;SDS011;36346;48.280;14.292;2022-07-29T07:56:07;8.00;;;8.00;;
50417;SDS011;36346;48.280;14.292;2022-07-29T07:58:39;7.87;;;7.87;;
50417;SDS011;36346;48.280;14.292;2022-07-29T08:01:07;7.34;;;7.34;;
50417;SDS011;36346;48.280;14.292;2022-07-29T08:03:37;7.27;;;7.27;;
50417;SDS011;36346;48.280;14.292;2022-07-29T08:06:05;7.37;;;7.37;;
50417;SDS011;36346;48.280;14.292;2022-07-29T08:08:34;7.27;;;7.27;;
50417;SDS011;36346;48.280;14.292;2022-07-29T08:11:02;7.42;;;7.42;;
50417;SDS011;36346;48.280;14.292;2022-07-29T08:13:36;7.74;;;7.74;;
50417;SDS011;36346;48.280;14.292;2022-07-29T08:16:06;7.55;;;7.55;;
50417;SDS011;36346;48.280;14.292;2022-07-29T08:18:43;7.77;;;7.77;;
50417;SDS011;36346;48.280;14.292;2022-07-29T08:21:13;7.86;;;7.86;;
50417;SDS011;36346;48.280;14.292;2022-07-29T08:23:45;7.42;;;7.42;;
50417;SDS011;36346;48.280;14.292;2022-07-29T08:26:26;7.48;;;7.48;;
50417;SDS011;36346;48.280;14.292;2022-07-29T08:28:54;7.70;;;7.70;;
50417;SDS011;36346;48.280;14.292;2022-07-29T08:31:22;7.12;;;7.12;;
50417;SDS011;36346;48.280;14.292;2022-07-29T08:33:50;7.53;;;7.53;;
50417;SDS011;36346;48.280;14.292;2022-07-29T08:36:18;7.14;;;7.14;;
50417;SDS011;36346;48.280;14.292;2022-07-29T08:38:48;7.42;;;7.42;;
50417;SDS011;36346;48.280;14.292;2022-07-29T08:41:17;7.31;;;7.31;;
50417;SDS011;36346;48.280;14.292;2022-07-29T08:43:47;7.40;;;7.40;;
50417;SDS011;36346;48.280;14.292;2022-07-29T08:46:15;7.26;;;7.26;;
50417;SDS011;36346;48.280;14.292;2022-07-29T08:48:44;7.31;;;7.31;;
50417;SDS011;36346;48.280;14.292;2022-07-29T08:51:16;7.23;;;7.23;;
50417;SDS011;36346;48.280;14.292;2022-07-29T08:53:46;7.19;;;7.19;;
50417;SDS011;36346;48.280;14.292;2022-07-29T08:56:17;6.83;;;6.83;;
50417;SDS011;36346;48.280;14.292;2022-07-29T08:58:47;7.54;;;7.54;;
50417;SDS011;36346;48.280;14.292;2022-07-29T09:01:22;7.54;;;7.54;;
50417;SDS011;36346;48.280;14.292;2022-07-29T09:04:03;7.60;;;7.60;;
50417;SDS011;36346;48.280;14.292;2022-07-29T09:06:34;7.65;;;7.65;;
50417;SDS011;36346;48.280;14.292;2022-07-29T09:09:05;7.47;;;7.47;;
50417;SDS011;36346;48.280;14.292;2022-07-29T09:11:36;7.04;;;7.04;;
50417;SDS011;36346;48.280;14.292;2022-07-29T09:14:04;7.42;;;7.42;;
50417;SDS011;36346;48.280;14.292;2022-07-29T09:16:43;7.32;;;7.32;;
50417;SDS011;36346;48.280;14.292;2022-07-29T09:19:31;7.34;;;7.34;;
50417;SDS011;36346;48.280;14.292;2022-07-29T09:22:11;7.17;;;7.17;;
50417;SDS011;36346;48.280;14.292;2022-07-29T09:24:44;7.62;;;7.62;;
50417;SDS011;36346;48.280;14.292;2022-07-29T09:29:45;7.98;;;7.98;;
50417;SDS011;36346;48.280;14.292;2022-07-29T09:32:12;8.17;;;8.17;;
50417;SDS011;36346;48.280;14.292;2022-07-29T09:34:40;8.81;;;8.81;;
50417;SDS011;36346;48.280;14.292;2022-07-29T09:37:08;9.14;;;9.14;;
50417;SDS011;36346;48.280;14.292;2022-07-29T09:39:37;9.08;;;9.08;;
50417;SDS011;36346;48.280;14.292;2022-07-29T09:42:13;9.70;;;9.70;;
50417;SDS011;36346;48.280;14.292;2022-07-29T09:44:55;11.13;;;11.13;;
50417;SDS011;36346;48.280;14.292;2022-07-29T09:47:27;11.49;;;11.49;;
50417;SDS011;36346;48.280;14.292;2022-07-29T09:50:09;11.76;;;11.76;;
50417;SDS011;36346;48.280;14.292;2022-07-29T09:52:50;22.18;;;22.18;;
50417;SDS011;36346;48.280;14.292;2022-07-29T09:55:19;14.46;;;14.46;;
50417;SDS011;36346;48.280;14.292;2022-07-29T09:57:47;12.86;;;12.86;;
50417;SDS011;36346;48.280;14.292;2022-07-29T10:00:16;13.00;;;13.00;;
50417;SDS011;36346;48.280;14.292;2022-07-29T10:02:46;11.67;;;11.67;;
50417;SDS011;36346;48.280;14.292;2022-07-29T10:05:25;11.52;;;11.52;;
50417;SDS011;36346;48.280;14.292;2022-07-29T10:08:03;11.54;;;11.54;;
50417;SDS011;36346;48.280;14.292;2022-07-29T10:10:33;13.64;;;13.64;;
50417;SDS011;36346;48.280;14.292;2022-07-29T10:13:04;12.54;;;12.54;;
50417;SDS011;36346;48.280;14.292;2022-07-29T10:15:43;11.44;;;11.44;;
50417;SDS011;36346;48.280;14.292;2022-07-29T10:18:13;10.12;;;10.12;;
50417;SDS011;36346;48.280;14.292;2022-07-29T10:20:45;9.48;;;9.48;;
50417;SDS011;36346;48.280;14.292;2022-07-29T10:23:13;9.98;;;9.98;;
50417;SDS011;36346;48.280;14.292;2022-07-29T10:25:41;10.32;;;10.32;;
50417;SDS011;36346;48.280;14.292;2022-07-29T10:28:13;10.60;;;10.60;;
50417;SDS011;36346;48.280;14.292;2022-07-29T10:30:43;9.86;;;9.86;;
50417;SDS011;36346;48.280;14.292;2022-07-29T10:42:17;8.79;;;8.79;;
50417;SDS011;36346;48.280;14.292;2022-07-29T10:45:02;10.16;;;10.16;;
50417;SDS011;36346;48.280;14.292;2022-07-29T10:47:31;9.40;;;9.40;;
50417;SDS011;36346;48.280;14.292;2022-07-29T10:50:03;11.73;;;11.73;;
50417;SDS011;36346;48.280;14.292;2022-07-29T10:58:15;9.60;;;9.60;;
50417;SDS011;36346;48.280;14.292;2022-07-29T11:00:48;9.58;;;9.58;;
50417;SDS011;36346;48.280;14.292;2022-07-29T11:06:17;9.97;;;9.97;;
50417;SDS011;36346;48.280;14.292;2022-07-29T11:11:47;9.43;;;9.43;;
50417;SDS011;36346;48.280;14.292;2022-07-29T11:14:18;9.60;;;9.60;;
50417;SDS011;36346;48.280;14.292;2022-07-29T11:17:23;9.35;;;9.35;;
50417;SDS011;36346;48.280;14.292;2022-07-29T11:19:51;8.91;;;8.91;;
50417;SDS011;36346;48.280;14.292;2022-07-29T11:22:35;7.87;;;7.87;;
50417;SDS011;36346;48.280;14.292;2022-07-29T11:25:14;7.30;;;7.30;;
50417;SDS011;36346;48.280;14.292;2022-07-29T11:27:44;7.45;;;7.45;;
50417;SDS011;36346;48.280;14.292;2022-07-29T11:30:14;7.59;;;7.59;;
50417;SDS011;36346;48.280;14.292;2022-07-29T11:32:43;7.55;;;7.55;;
50417;SDS011;36346;48.280;14.292;2022-07-29T11:35:19;6.23;;;6.23;;
50417;SDS011;36346;48.280;14.292;2022-07-29T11:43:57;8.24;;;8.24;;
50417;SDS011;36346;48.280;14.292;2022-07-29T11:46:47;11.94;;;11.94;;
50417;SDS011;36346;48.280;14.292;2022-07-29T11:49:20;8.10;;;8.10;;
50417;SDS011;36346;48.280;14.292;2022-07-29T11:51:59;6.00;;;6.00;;
50417;SDS011;36346;48.280;14.292;2022-07-29T11:54:33;6.65;;;6.65;;
50417;SDS011;36346;48.280;14.292;2022-07-29T11:57:22;6.43;;;6.43;;
50417;SDS011;36346;48.280;14.292;2022-07-29T12:00:07;6.54;;;6.54;;
50417;SDS011;36346;48.280;14.292;2022-07-29T12:02:40;6.06;;;6.06;;
50417;SDS011;36346;48.280;14.292;2022-07-29T12:05:14;5.67;;;5.67;;
50417;SDS011;36346;48.280;14.292;2022-07-29T12:08:06;5.96;;;5.96;;
50417;SDS011;36346;48.280;14.292;2022-07-29T12:10:42;6.36;;;6.36;;
50417;SDS011;36346;48.280;14.292;2022-07-29T12:13:11;7.19;;;7.19;;
50417;SDS011;36346;48.280;14.292;2022-07-29T12:15:40;8.11;;;8.11;;
50417;SDS011;36346;48.280;14.292;2022-07-29T12:18:15;6.09;;;6.09;;
50417;SDS011;36346;48.280;14.292;2022-07-29T12:20:46;5.65;;;5.65;;
50417;SDS011;36346;48.280;14.292;2022-07-29T12:23:15;5.73;;;5.73;;
50417;SDS011;36346;48.280;14.292;2022-07-29T12:25:45;5.30;;;5.30;;
50417;SDS011;36346;48.280;14.292;2022-07-29T12:28:16;5.57;;;5.57;;
50417;SDS011;36346;48.280;14.292;2022-07-29T12:30:54;5.38;;;5.38;;
50417;SDS011;36346;48.280;14.292;2022-07-29T12:33:26;4.78;;;4.78;;
50417;SDS011;36346;48.280;14.292;2022-07-29T12:35:56;4.95;;;4.95;;
50417;SDS011;36346;48.280;14.292;2022-07-29T12:38:40;4.75;;;4.75;;
50417;SDS011;36346;48.280;14.292;2022-07-29T12:41:08;4.87;;;4.87;;
50417;SDS011;36346;48.280;14.292;2022-07-29T12:43:36;5.08;;;5.08;;
50417;SDS011;36346;48.280;14.292;2022-07-29T12:46:12;6.66;;;6.66;;
50417;SDS011;36346;48.280;14.292;2022-07-29T12:48:42;5.39;;;5.39;;
50417;SDS011;36346;48.280;14.292;2022-07-29T12:51:11;4.39;;;4.39;;
50417;SDS011;36346;48.280;14.292;2022-07-29T12:54:01;4.17;;;4.17;;
50417;SDS011;36346;48.280;14.292;2022-07-29T12:56:38;4.41;;;4.41;;
50417;SDS011;36346;48.280;14.292;2022-07-29T12:59:28;3.90;;;3.90;;
50417;SDS011;36346;48.280;14.292;2022-07-29T13:01:56;3.83;;;3.83;;
50417;SDS011;36346;48.280;14.292;2022-07-29T13:04:28;4.13;;;4.13;;
50417;SDS011;36346;48.280;14.292;2022-07-29T13:07:07;4.57;;;4.57;;
50417;SDS011;36346;48.280;14.292;2022-07-29T13:09:40;4.37;;;4.37;;
50417;SDS011;36346;48.280;14.292;2022-07-29T13:12:12;4.41;;;4.41;;
50417;SDS011;36346;48.280;14.292;2022-07-29T13:14:47;4.46;;;4.46;;
50417;SDS011;36346;48.280;14.292;2022-07-29T13:17:18;4.79;;;4.79;;
50417;SDS011;36346;48.280;14.292;2022-07-29T13:19:49;5.21;;;5.21;;
50417;SDS011;36346;48.280;14.292;2022-07-29T13:22:23;5.14;;;5.14;;
50417;SDS011;36346;48.280;14.292;2022-07-29T13:24:55;5.21;;;5.21;;
50417;SDS011;36346;48.280;14.292;2022-07-29T13:27:26;5.02;;;5.02;;
50417;SDS011;36346;48.280;14.292;2022-07-29T13:29:55;5.38;;;5.38;;
50417;SDS011;36346;48.280;14.292;2022-07-29T13:32:25;5.09;;;5.09;;
50417;SDS011;36346;48.280;14.292;2022-07-29T13:34:56;5.20;;;5.20;;
50417;SDS011;36346;48.280;14.292;2022-07-29T13:37:25;5.06;;;5.06;;
50417;SDS011;36346;48.280;14.292;2022-07-29T13:39:56;5.52;;;5.52;;
50417;SDS011;36346;48.280;14.292;2022-07-29T13:42:25;9.46;;;9.46;;
50417;SDS011;36346;48.280;14.292;2022-07-29T13:44:54;6.45;;;6.45;;
50417;SDS011;36346;48.280;14.292;2022-07-29T13:47:22;7.49;;;7.49;;
50417;SDS011;36346;48.280;14.292;2022-07-29T13:50:02;7.41;;;7.41;;
50417;SDS011;36346;48.280;14.292;2022-07-29T13:52:33;7.64;;;7.64;;
50417;SDS011;36346;48.280;14.292;2022-07-29T13:55:02;6.78;;;6.78;;
50417;SDS011;36346;48.280;14.292;2022-07-29T13:57:30;6.69;;;6.69;;
50417;SDS011;36346;48.280;14.292;2022-07-29T13:59:58;7.04;;;7.04;;
50417;SDS011;36346;48.280;14.292;2022-07-29T14:02:26;7.44;;;7.44;;
50417;SDS011;36346;48.280;14.292;2022-07-29T14:04:54;7.33;;;7.33;;
50417;SDS011;36346;48.280;14.292;2022-07-29T14:07:22;7.56;;;7.56;;
50417;SDS011;36346;48.280;14.292;2022-07-29T14:09:50;7.18;;;7.18;;
50417;SDS011;36346;48.280;14.292;2022-07-29T14:12:18;7.22;;;7.22;;
50417;SDS011;36346;48.280;14.292;2022-07-29T14:14:46;6.51;;;6.51;;
50417;SDS011;36346;48.280;14.292;2022-07-29T14:17:15;6.67;;;6.67;;
50417;SDS011;36346;48.280;14.292;2022-07-29T14:19:43;6.55;;;6.54;;
50417;SDS011;36346;48.280;14.292;2022-07-29T14:22:11;6.85;;;6.85;;
50417;SDS011;36346;48.280;14.292;2022-07-29T14:24:39;6.18;;;6.18;;
50417;SDS011;36346;48.280;14.292;2022-07-29T14:27:07;6.73;;;6.73;;
50417;SDS011;36346;48.280;14.292;2022-07-29T14:29:35;5.93;;;5.93;;
50417;SDS011;36346;48.280;14.292;2022-07-29T14:32:05;5.59;;;5.59;;
50417;SDS011;36346;48.280;14.292;2022-07-29T14:34:35;5.90;;;5.90;;
50417;SDS011;36346;48.280;14.292;2022-07-29T14:37:04;5.58;;;5.58;;
50417;SDS011;36346;48.280;14.292;2022-07-29T14:39:34;5.66;;;5.66;;
50417;SDS011;36346;48.280;14.292;2022-07-29T14:42:10;5.14;;;5.14;;
50417;SDS011;36346;48.280;14.292;2022-07-29T14:44:39;5.43;;;5.43;;
50417;SDS011;36346;48.280;14.292;2022-07-29T14:47:09;5.04;;;5.04;;
50417;SDS011;36346;48.280;14.292;2022-07-29T14:49:37;5.10;;;5.10;;
50417;SDS011;36346;48.280;14.292;2022-07-29T14:52:05;5.12;;;5.12;;
50417;SDS011;36346;48.280;14.292;2022-07-29T14:54:33;6.28;;;6.28;;
50417;SDS011;36346;48.280;14.292;2022-07-29T14:57:01;5.23;;;5.23;;
50417;SDS011;36346;48.280;14.292;2022-07-29T14:59:29;4.57;;;4.57;;
50417;SDS011;36346;48.280;14.292;2022-07-29T15:01:58;4.41;;;4.41;;
50417;SDS011;36346;48.280;14.292;2022-07-29T15:04:26;4.45;;;4.45;;
50417;SDS011;36346;48.280;14.292;2022-07-29T15:06:54;4.39;;;4.39;;
50417;SDS011;36346;48.280;14.292;2022-07-29T15:09:23;4.68;;;4.68;;
50417;SDS011;36346;48.280;14.292;2022-07-29T15:11:51;4.55;;;4.55;;
50417;SDS011;36346;48.280;14.292;2022-07-29T15:14:19;5.00;;;5.00;;
50417;SDS011;36346;48.280;14.292;2022-07-29T15:16:47;4.96;;;4.96;;
50417;SDS011;36346;48.280;14.292;2022-07-29T15:19:15;4.52;;;4.52;;
50417;SDS011;36346;48.280;14.292;2022-07-29T15:21:43;4.50;;;4.50;;
50417;SDS011;36346;48.280;14.292;2022-07-29T15:24:15;4.98;;;4.98;;
50417;SDS011;36346;48.280;14.292;2022-07-29T15:26:44;4.48;;;4.48;;
50417;SDS011;36346;48.280;14.292;2022-07-29T15:29:13;4.89;;;4.89;;
50417;SDS011;36346;48.280;14.292;2022-07-29T15:31:41;4.65;;;4.65;;
50417;SDS011;36346;48.280;14.292;2022-07-29T15:34:10;4.15;;;4.15;;
50417;SDS011;36346;48.280;14.292;2022-07-29T15:36:38;4.68;;;4.68;;
50417;SDS011;36346;48.280;14.292;2022-07-29T15:39:22;4.08;;;4.08;;
50417;SDS011;36346;48.280;14.292;2022-07-29T15:41:50;3.86;;;3.86;;